• Join FlightAware (Why Join?)
  • Login
  • US Flag 
03:35AM EDT


 

Airport Tracker/Info


-or-


 

Live Flight TrackerFlight Track Log ✈ UAL4563 ✈ 20-Jun-2013 ✈ KCLE - KMHT

Flight Track Log - Related Links

Times and Time Zones

All times are in EDT time to prevent confusion due to time zone crossing. See the UAL4563 flight status page for this flight to view local times or setup timezone preferences in your user account.

Time Position Orientation Groundspeed Altitude Reporting Facility
EDT Latitude Longitude Course Direction KTS MPH feet Rate Location/Type
03:27PM 41.4172 -81.8375 73° East 166 191 1,700  Level Cleveland Center
03:28PM 41.4592 -81.8272 10° North 194 223 3,200 1,680 Climbing Cleveland Center
03:29PM 41.5197 -81.8061 15° North 245 282 4,800 2,040 Climbing Cleveland Center
03:30PM 41.6734 -81.5767 37° Northeast  Level FlightAware Approximate
03:30PM 41.5950 -81.7964 North 261 300 7,300  Level Cleveland Center
03:31PM 41.7653 -81.4848 37° Northeast  Level FlightAware Approximate
03:31PM 41.6433 -81.7475 37° Northeast 266 306 9,200  Level Cleveland Center
03:32PM 41.8346 -81.3770 75° East  Level FlightAware Approximate
03:32PM 41.6694 -81.6478 71° East 251 289 11,400  Level Cleveland Center
03:33PM 41.8554 -81.2269 73° East  Level FlightAware Approximate
03:33PM 41.7286 -81.5708 44° Northeast 272 313 13,400  Level Cleveland Center
03:34PM 41.7856 -81.4908 46° Northeast 287 330 15,300 1,320 Climbing Cleveland Center
03:35PM 41.8403 -81.3969 52° Northeast 311 358 16,100 660 Climbing Cleveland Center
03:36PM 41.8642 -81.2494 78° East 342 394 16,700 780 Climbing Cleveland Center
03:37PM 41.8900 -81.1075 76° East 379 436 17,700 840 Climbing Cleveland Center
03:38PM 41.9114 -80.9597 79° East 395 455 18,400 900 Climbing Cleveland Center
03:39PM 41.9347 -80.8092 78° East 400 460 19,500 1,020 Climbing Cleveland Center
03:40PM 41.9600 -80.6586 77° East 414 476 20,500 1,020 Climbing Cleveland Center
03:41PM 41.9850 -80.5022 78° East 419 482 21,600 1,020 Climbing Cleveland Center
03:42PM 42.0078 -80.3428 79° East 425 489 22,600 960 Climbing Cleveland Center
03:43PM 42.0322 -80.1806 78° East 435 501 23,600 900 Climbing Cleveland Center
03:44PM 42.0544 -80.0350 78° East 435 501 24,500 1,020 Climbing Cleveland Center
03:45PM 42.0850 -79.8614 77° East 435 501 25,700 1,320 Climbing Cleveland Center
03:46PM 42.1047 -79.7017 80° East 430 495 27,200 1,440 Climbing Cleveland Center
03:47PM 42.1264 -79.5614 78° East 430 495 28,600 1,860 Climbing Cleveland Center
03:48PM 42.1517 -79.3872 79° East 425 489 31,000 1,200 Climbing Cleveland Center
03:49PM 42.1692 -79.2525 80° East 425 489 31,000  Level Cleveland Center
03:50PM 42.1922 -79.0950 79° East 425 489 31,000  Level Cleveland Center
03:51PM 42.2128 -78.9236 81° East 442 509 31,000  Level Cleveland Center
03:52PM 42.2392 -78.7350 79° East 453 521 31,000  Level Cleveland Center
03:53PM 42.2611 -78.5575 80° East 464 534 31,000  Level Cleveland Center
03:54PM 42.2828 -78.3828 80° East 469 540 31,000  Level Cleveland Center
03:55PM 42.3044 -78.2081 80° East 469 540 31,000  Level Cleveland Center
03:56PM 42.3256 -78.0275 81° East 469 540 31,000  Level Cleveland Center
03:57PM 42.3444 -77.8525 82° East 469 540 31,000  Level Cleveland Center
03:58PM 42.3653 -77.6744 81° East 469 540 31,000  Level Cleveland Center
03:59PM 42.3856 -77.4936 81° East 469 540 31,000  Level Cleveland Center
04:00PM 42.4078 -77.3153 80° East 474 545 31,000  Level Cleveland Center
04:02PM 42.4547 -76.8956 81° East 468 539 31,000  Level Boston Center
04:03PM 42.4742 -76.7167 82° East 479 551 31,000  Level Boston Center
04:04PM 42.4936 -76.5292 82° East 484 557 31,000  Level Boston Center
04:05PM 42.5125 -76.3472 82° East 484 557 31,000  Level Boston Center
04:06PM 42.5308 -76.1681 82° East 484 557 31,000  Level Boston Center
04:07PM 42.5494 -75.9858 82° East 484 557 31,000  Level Boston Center
04:08PM 42.5650 -75.8147 83° East 484 557 31,000 -540 Level Boston Center
04:09PM 42.5828 -75.6294 83° East 489 563 30,000 -1,020 Descending Boston Center
04:10PM 42.6003 -75.4528 82° East 483 556 29,000 -480 Descending Boston Center
04:11PM 42.6225 -75.2281 82° East 483 556 29,000  Level Boston Center
04:12PM 42.6394 -75.0425 83° East 488 562 29,000  Level Boston Center
04:13PM 42.6561 -74.8567 83° East 493 567 29,000  Level Boston Center
04:14PM 42.6697 -74.7019 83° East 500 575 29,000  Level Boston Center
04:15PM 42.6886 -74.4739 83° East 500 575 29,000  Level Boston Center
04:16PM 42.7083 -74.2853 82° East 500 575 29,000 -780 Level Boston Center
04:18PM 42.7164 -74.1215 86° East  Level FlightAware Approximate
04:18PM 42.7431 -73.9103 86° East 500 575 26,800  Level Boston Center
04:19PM 42.7600 -73.7211 83° East 500 575 25,600 -1,140 Descending Boston Center
04:20PM 42.7767 -73.5347 83° East 495 570 24,600 -1,200 Descending Boston Center
04:21PM 42.7928 -73.3511 83° East 494 568 23,300 -1,380 Descending Boston Center
04:22PM 42.8086 -73.1703 83° East 488 562 21,900 -1,620 Descending Boston Center
04:23PM 42.8200 -72.9892 85° East 476 548 20,100 -1,920 Descending Boston Center
04:24PM 42.8353 -72.8053 83° East 469 540 18,100 -1,800 Descending Boston Center
04:25PM 42.8461 -72.6469 85° East 446 513 16,500 -1,920 Descending Boston Center
04:27PM 42.8611 -72.4628 84° East 420 483 13,900 -2,280 Descending Boston Center
04:28PM 42.8714 -72.3183 84° East 402 463 11,500 -1,860 Descending Boston Center
04:29PM 42.8794 -72.1881 85° East 357 411 10,200 -1,260 Descending Boston Center
04:30PM 42.8894 -72.0744 83° East 315 362 9,000 -1,500 Descending Boston Center
04:31PM 42.9081 -71.9725 76° East 277 319 7,200 -1,740 Descending Boston Center
04:32PM 42.9283 -71.8731 74° East 272 313 5,600 -1,380 Descending Boston Center
04:33PM 42.9486 -71.7764 74° East 265 305 4,500 -780 Descending Boston Center
04:34PM 42.9669 -71.6797 75° East 260 299 4,100 -420 Descending Boston Center